Time;durP1;ratioP1;P1;durP2;ratioP2;P2;SDS_P1;SDS_P2;PMS_P1;PMS_P2;Temp;Humidity;BMP_temperature;BMP_pressure;BME280_temperature;BME280_humidity;BME280_pressure;Samples;Min_cycle;Max_cycle;Signal;HPM_P1;HPM_P2
2023/03/05 00:00:14;;;;;;;21.83;10.50;;;8.30;94.20;;;;;;7401447;19;19915;-76
2023/03/05 00:02:40;;;;;;;20.02;10.73;;;8.30;94.20;;;;;;7371793;19;19910;-75
2023/03/05 00:05:07;;;;;;;23.45;10.93;;;8.30;94.20;;;;;;7403718;19;19955;-74
2023/03/05 00:07:33;;;;;;;20.48;10.43;;;8.20;94.30;;;;;;7406998;19;19978;-75
2023/03/05 00:10:00;;;;;;;20.05;10.05;;;8.30;94.20;;;;;;7406292;19;20357;-74
2023/03/05 00:12:26;;;;;;;22.67;11.00;;;8.20;94.20;;;;;;7402102;19;19974;-74
2023/03/05 00:14:52;;;;;;;23.88;11.77;;;8.20;94.10;;;;;;7405058;19;19922;-73
2023/03/05 00:17:18;;;;;;;23.95;11.18;;;8.20;94.40;;;;;;7402323;19;19946;-74
2023/03/05 00:19:43;;;;;;;23.75;10.70;;;8.10;94.20;;;;;;7407024;19;19927;-75
2023/03/05 00:22:09;;;;;;;21.48;10.25;;;8.10;94.30;;;;;;7402514;19;20200;-74
2023/03/05 00:24:35;;;;;;;22.17;11.07;;;8.10;94.40;;;;;;7404566;19;20242;-74
2023/03/05 00:27:01;;;;;;;21.17;10.07;;;8.00;94.50;;;;;;7406344;19;19922;-76
2023/03/05 00:29:28;;;;;;;23.50;11.02;;;8.00;94.60;;;;;;7402695;19;19923;-74
2023/03/05 00:31:55;;;;;;;21.00;10.00;;;8.00;94.90;;;;;;7403974;19;19930;-74
2023/03/05 00:34:21;;;;;;;20.77;10.45;;;8.00;94.80;;;;;;7403651;19;19932;-74
2023/03/05 00:36:51;;;;;;;25.63;10.40;;;8.10;94.80;;;;;;7405436;19;19925;-75
2023/03/05 00:39:19;;;;;;;20.40;10.43;;;8.10;94.60;;;;;;7403220;19;19945;-74
2023/03/05 00:41:44;;;;;;;22.42;10.13;;;8.10;94.40;;;;;;7403052;19;19922;-74
2023/03/05 00:44:10;;;;;;;20.77;9.85;;;8.10;94.40;;;;;;7402642;19;20370;-74
2023/03/05 00:46:36;;;;;;;22.83;10.18;;;8.00;94.30;;;;;;7404304;19;19919;-74
2023/03/05 00:49:03;;;;;;;23.10;10.65;;;7.90;94.50;;;;;;7401331;19;19919;-74
2023/03/05 00:51:28;;;;;;;21.50;9.93;;;7.90;94.60;;;;;;7402943;19;19933;-75
2023/03/05 00:53:54;;;;;;;21.80;10.32;;;7.90;94.60;;;;;;7403401;19;19923;-74
2023/03/05 00:56:21;;;;;;;20.33;10.60;;;7.80;94.80;;;;;;7403554;19;19914;-74
2023/03/05 00:58:46;;;;;;;22.77;10.52;;;7.80;94.90;;;;;;7400663;19;19919;-74
2023/03/05 01:01:13;;;;;;;23.05;9.98;;;7.80;94.80;;;;;;7402518;19;20469;-75
2023/03/05 01:03:39;;;;;;;23.08;10.63;;;7.80;94.90;;;;;;7405596;19;19935;-74
2023/03/05 01:06:09;;;;;;;22.58;9.40;;;7.80;95.20;;;;;;7400963;19;19946;-75
2023/03/05 01:08:36;;;;;;;21.65;9.95;;;7.80;95.00;;;;;;7402074;19;19951;-74
2023/03/05 01:11:03;;;;;;;19.50;9.88;;;7.70;95.00;;;;;;7404269;19;19930;-74
2023/03/05 01:13:28;;;;;;;21.75;10.38;;;7.80;95.10;;;;;;7402555;19;19915;-75
2023/03/05 01:15:55;;;;;;;20.85;9.68;;;7.70;95.30;;;;;;7402358;19;19990;-74
2023/03/05 01:18:21;;;;;;;20.52;9.68;;;7.70;95.30;;;;;;7398622;19;19978;-73
2023/03/05 01:20:47;;;;;;;21.02;10.15;;;7.80;95.50;;;;;;7401789;19;20284;-73
2023/03/05 01:23:14;;;;;;;20.55;10.13;;;7.70;95.30;;;;;;7400657;19;19914;-74
2023/03/05 01:25:40;;;;;;;20.33;9.75;;;7.70;95.30;;;;;;7401115;19;19907;-74
2023/03/05 01:28:07;;;;;;;20.58;10.65;;;7.70;95.50;;;;;;7400268;19;19915;-73
2023/03/05 01:30:33;;;;;;;20.75;10.38;;;7.60;95.40;;;;;;7399485;19;19926;-74
2023/03/05 01:32:59;;;;;;;22.88;11.38;;;7.60;95.50;;;;;;7378833;19;19925;-74
2023/03/05 01:35:25;;;;;;;23.23;11.07;;;7.60;95.40;;;;;;7401038;19;19926;-74
2023/03/05 01:37:52;;;;;;;23.35;11.00;;;7.70;95.30;;;;;;7403037;19;19918;-73
2023/03/05 01:40:20;;;;;;;20.77;9.88;;;7.70;95.30;;;;;;7399798;19;20006;-74
2023/03/05 01:42:48;;;;;;;21.25;10.18;;;7.70;95.40;;;;;;7401522;19;19935;-74
2023/03/05 01:45:16;;;;;;;23.15;10.80;;;7.60;95.40;;;;;;7406850;19;19930;-75
2023/03/05 01:47:44;;;;;;;24.95;10.27;;;7.60;95.50;;;;;;7409682;19;19923;-74
2023/03/05 01:50:14;;;;;;;22.55;11.13;;;7.60;95.60;;;;;;7405311;19;19926;-74
2023/03/05 01:52:44;;;;;;;24.55;10.40;;;7.60;95.70;;;;;;7409612;19;19918;-74
2023/03/05 01:55:16;;;;;;;23.15;10.88;;;7.60;95.80;;;;;;7408555;19;20357;-74
2023/03/05 01:57:50;;;;;;;19.88;9.68;;;7.60;95.90;;;;;;7405482;19;19919;-74
2023/03/05 02:00:21;;;;;;;21.25;10.43;;;7.60;95.60;;;;;;7407405;19;19979;-74
2023/03/05 02:02:50;;;;;;;18.85;9.93;;;7.60;95.60;;;;;;7407881;19;19978;-74
2023/03/05 02:05:17;;;;;;;22.40;10.48;;;7.60;95.70;;;;;;7408141;19;20346;-74
2023/03/05 02:07:44;;;;;;;18.65;9.55;;;7.50;95.60;;;;;;7408821;19;19926;-74
2023/03/05 02:10:23;;;;;;;20.15;9.77;;;7.50;95.50;;;;;;7406884;19;19959;-74
2023/03/05 02:12:50;;;;;;;20.92;9.65;;;7.50;95.40;;;;;;7406793;19;19966;-73
2023/03/05 02:15:16;;;;;;;20.90;10.23;;;7.50;95.20;;;;;;7405356;19;19918;-74
2023/03/05 02:17:42;;;;;;;21.15;9.48;;;7.40;95.10;;;;;;7405822;19;19919;-73
2023/03/05 02:20:15;;;;;;;18.90;9.45;;;7.50;94.80;;;;;;7402800;19;19915;-74
2023/03/05 02:22:41;;;;;;;20.30;9.98;;;7.40;94.80;;;;;;7404970;19;20256;-74
2023/03/05 02:25:34;;;;;;;19.77;9.77;;;7.50;94.90;;;;;;7404335;19;19926;-74
2023/03/05 02:28:06;;;;;;;20.42;10.40;;;7.40;94.90;;;;;;7376863;19;19925;-74
2023/03/05 02:30:32;;;;;;;18.15;9.95;;;7.40;94.80;;;;;;7403476;19;19926;-73
2023/03/05 02:32:58;;;;;;;19.88;9.77;;;7.40;94.70;;;;;;7406489;19;20208;-74
2023/03/05 02:35:24;;;;;;;18.00;8.95;;;7.40;94.60;;;;;;7404617;19;19918;-73
2023/03/05 02:37:50;;;;;;;21.52;9.95;;;7.30;94.60;;;;;;7407553;19;19907;-74
2023/03/05 02:40:16;;;;;;;22.88;10.32;;;7.30;94.60;;;;;;7406528;19;19926;-74
2023/03/05 02:42:42;;;;;;;23.65;9.90;;;7.30;94.70;;;;;;7409335;19;19921;-74
2023/03/05 02:45:09;;;;;;;19.92;9.55;;;7.30;94.80;;;;;;7405442;19;20336;-73
2023/03/05 02:47:35;;;;;;;23.25;10.15;;;7.20;94.80;;;;;;7403914;19;19926;-74
2023/03/05 02:50:01;;;;;;;20.10;9.40;;;7.20;94.80;;;;;;7407341;19;19910;-73
2023/03/05 02:52:28;;;;;;;20.60;10.00;;;7.20;95.00;;;;;;7405028;19;19915;-74
2023/03/05 02:54:54;;;;;;;20.10;9.80;;;7.20;95.00;;;;;;7405436;19;19990;-74
2023/03/05 02:57:20;;;;;;;21.60;10.57;;;7.20;95.00;;;;;;7404233;19;20335;-74
2023/03/05 02:59:46;;;;;;;20.92;9.98;;;7.20;95.10;;;;;;7377312;19;19915;-73
2023/03/05 03:02:12;;;;;;;23.05;10.05;;;7.20;95.10;;;;;;7407257;19;19943;-75
2023/03/05 03:04:38;;;;;;;19.88;9.98;;;7.20;95.10;;;;;;7405358;19;20251;-74
2023/03/05 03:07:04;;;;;;;19.83;9.88;;;7.20;95.10;;;;;;7400964;19;19907;-73
2023/03/05 03:09:30;;;;;;;21.05;10.13;;;7.10;95.30;;;;;;7407237;19;19910;-74
2023/03/05 03:11:55;;;;;;;29.77;10.48;;;7.20;95.50;;;;;;7405592;19;19913;-73
2023/03/05 03:14:21;;;;;;;20.27;10.35;;;7.20;95.60;;;;;;7370822;19;19918;-74
2023/03/05 03:16:47;;;;;;;19.60;10.23;;;7.20;95.70;;;;;;7407637;19;20252;-73
2023/03/05 03:19:14;;;;;;;20.25;10.27;;;7.10;95.50;;;;;;7383481;19;19926;-73
2023/03/05 03:21:40;;;;;;;18.98;9.75;;;7.10;95.60;;;;;;7405520;19;19918;-73
2023/03/05 03:24:06;;;;;;;19.88;10.35;;;7.10;95.50;;;;;;7382615;19;19927;-73
2023/03/05 03:26:32;;;;;;;22.60;10.23;;;7.10;95.70;;;;;;7403364;19;19914;-75
2023/03/05 03:28:57;;;;;;;20.15;9.27;;;7.10;95.70;;;;;;7404092;19;20348;-74
2023/03/05 03:31:23;;;;;;;20.88;10.45;;;7.10;95.90;;;;;;7404023;19;20338;-74
2023/03/05 03:33:49;;;;;;;21.95;10.30;;;7.20;95.80;;;;;;7404379;19;19915;-73
2023/03/05 03:36:15;;;;;;;22.20;10.73;;;7.20;95.80;;;;;;7404960;19;20674;-75
2023/03/05 03:38:41;;;;;;;20.48;10.15;;;7.20;96.00;;;;;;7407674;19;19917;-74
2023/03/05 03:41:08;;;;;;;21.00;10.68;;;7.20;96.00;;;;;;7404998;19;20751;-75
2023/03/05 03:43:37;;;;;;;23.48;11.48;;;7.30;96.30;;;;;;7407347;19;19998;-72
2023/03/05 03:46:05;;;;;;;19.42;10.45;;;7.30;96.10;;;;;;7401080;19;20285;-74
2023/03/05 03:48:31;;;;;;;23.80;10.75;;;7.20;96.00;;;;;;7406076;19;19928;-74
2023/03/05 03:50:57;;;;;;;22.77;10.82;;;7.10;95.90;;;;;;7407187;19;19919;-73
2023/03/05 03:53:22;;;;;;;21.52;10.68;;;7.20;95.70;;;;;;7402077;19;20359;-74
2023/03/05 03:55:48;;;;;;;21.52;11.80;;;7.10;95.30;;;;;;7404061;19;19920;-73
2023/03/05 03:58:14;;;;;;;22.23;10.38;;;7.10;95.10;;;;;;7401190;19;19915;-74
2023/03/05 04:00:40;;;;;;;28.00;11.38;;;7.10;95.00;;;;;;7374787;19;19974;-74
2023/03/05 04:03:07;;;;;;;21.80;10.93;;;7.00;94.90;;;;;;7380900;19;20022;-74
2023/03/05 04:05:33;;;;;;;22.65;11.05;;;7.00;95.00;;;;;;7403703;19;19918;-74
2023/03/05 04:08:00;;;;;;;23.70;10.88;;;7.20;94.80;;;;;;7402958;19;20021;-76
2023/03/05 04:10:26;;;;;;;21.80;10.45;;;7.20;95.10;;;;;;7400465;19;19922;-74
2023/03/05 04:12:52;;;;;;;25.90;12.13;;;7.20;95.00;;;;;;7401999;19;19919;-73
2023/03/05 04:15:18;;;;;;;24.20;10.85;;;7.20;94.90;;;;;;7361361;19;19915;-74
2023/03/05 04:17:43;;;;;;;25.20;11.20;;;7.10;94.90;;;;;;7405134;19;19964;-74
2023/03/05 04:20:10;;;;;;;22.08;11.20;;;7.00;95.00;;;;;;7403108;19;19918;-74
2023/03/05 04:22:36;;;;;;;21.88;10.80;;;7.00;95.10;;;;;;7406029;19;19915;-73
2023/03/05 04:25:05;;;;;;;28.38;11.20;;;7.00;95.20;;;;;;7402779;19;19919;-75
2023/03/05 04:27:36;;;;;;;18.35;9.48;;;7.00;95.30;;;;;;7401315;19;20369;-74
2023/03/05 04:30:03;;;;;;;22.60;10.93;;;7.00;95.30;;;;;;7403046;19;20417;-74
2023/03/05 04:32:29;;;;;;;22.83;10.45;;;7.00;95.50;;;;;;7403524;19;19918;-74
2023/03/05 04:34:58;;;;;;;22.17;11.18;;;7.10;95.40;;;;;;7403337;19;19993;-74
2023/03/05 04:37:25;;;;;;;23.13;12.73;;;7.10;95.00;;;;;;7403741;19;20357;-73
2023/03/05 04:39:51;;;;;;;25.77;11.27;;;7.00;94.30;;;;;;7404318;19;19921;-73
2023/03/05 04:42:18;;;;;;;21.38;10.73;;;7.00;94.20;;;;;;7400675;19;19919;-74
2023/03/05 04:44:48;;;;;;;21.25;11.18;;;7.00;94.40;;;;;;7405215;19;20017;-73
2023/03/05 04:47:16;;;;;;;21.40;11.65;;;7.00;94.30;;;;;;7402022;19;19993;-74
2023/03/05 04:49:42;;;;;;;22.45;11.05;;;7.00;94.30;;;;;;7402978;19;19925;-75
2023/03/05 04:52:10;;;;;;;23.92;11.32;;;7.00;94.70;;;;;;7401914;19;19915;-73
2023/03/05 04:54:36;;;;;;;21.40;10.35;;;7.10;94.70;;;;;;7404358;19;19918;-74
2023/03/05 04:57:02;;;;;;;22.80;11.13;;;7.20;94.20;;;;;;7405798;19;19915;-75
2023/03/05 04:59:28;;;;;;;25.75;11.70;;;7.20;94.10;;;;;;7402192;19;19919;-74
2023/03/05 05:01:54;;;;;;;24.83;10.73;;;7.10;94.10;;;;;;7404047;19;19974;-74
2023/03/05 05:04:20;;;;;;;23.60;11.23;;;7.00;94.10;;;;;;7401505;19;19929;-74
2023/03/05 05:06:46;;;;;;;23.13;11.82;;;7.00;93.90;;;;;;7403014;19;19918;-74
2023/03/05 05:09:11;;;;;;;22.70;10.82;;;7.00;93.40;;;;;;7402939;19;19914;-74
2023/03/05 05:11:38;;;;;;;22.55;11.25;;;7.20;92.90;;;;;;7400556;19;20255;-75
2023/03/05 05:14:04;;;;;;;22.80;11.65;;;7.20;92.70;;;;;;7400215;19;19927;-73
2023/03/05 05:16:30;;;;;;;23.67;11.05;;;7.00;92.50;;;;;;7401321;19;20512;-73
2023/03/05 05:18:55;;;;;;;22.02;11.18;;;7.00;92.90;;;;;;7375627;19;19929;-74
2023/03/05 05:21:21;;;;;;;23.27;10.93;;;7.00;92.90;;;;;;7406763;19;19919;-74
2023/03/05 05:23:47;;;;;;;23.67;10.63;;;7.00;92.70;;;;;;7408324;19;19935;-74
2023/03/05 05:26:13;;;;;;;23.83;11.02;;;7.10;92.80;;;;;;7409315;19;20249;-73
2023/03/05 05:28:43;;;;;;;23.27;10.80;;;7.20;92.80;;;;;;7405625;19;19910;-73
2023/03/05 05:31:11;;;;;;;22.63;10.70;;;7.20;92.90;;;;;;7407721;19;19926;-74
2023/03/05 05:33:37;;;;;;;23.33;11.68;;;7.40;91.80;;;;;;7376333;19;19934;-74
2023/03/05 05:36:04;;;;;;;26.02;12.65;;;7.40;93.20;;;;;;7406067;19;20172;-74
2023/03/05 05:38:30;;;;;;;24.40;11.52;;;7.40;92.60;;;;;;7409802;19;19919;-74
2023/03/05 05:41:02;;;;;;;23.35;11.00;;;7.40;92.50;;;;;;7407603;19;19915;-73
2023/03/05 05:43:30;;;;;;;23.90;11.13;;;7.20;92.70;;;;;;7406806;19;19918;-74
2023/03/05 05:46:05;;;;;;;25.50;11.40;;;7.20;92.80;;;;;;7408971;19;19915;-74
2023/03/05 05:48:33;;;;;;;21.08;10.35;;;7.20;93.20;;;;;;7405161;19;20273;-73
2023/03/05 05:51:03;;;;;;;23.45;12.07;;;7.20;93.10;;;;;;7408597;19;19921;-74
2023/03/05 05:53:29;;;;;;;22.88;11.90;;;7.30;93.70;;;;;;7406690;19;19923;-75
2023/03/05 05:55:55;;;;;;;24.02;11.50;;;7.20;93.90;;;;;;7409494;19;19918;-74
2023/03/05 05:58:21;;;;;;;25.17;11.85;;;7.20;94.00;;;;;;7407239;19;19935;-72
2023/03/05 06:00:46;;;;;;;21.35;10.50;;;7.30;94.00;;;;;;7405561;19;19925;-74
2023/03/05 06:03:13;;;;;;;26.88;12.43;;;7.20;94.00;;;;;;7404263;19;19931;-74
2023/03/05 06:05:40;;;;;;;26.40;13.55;;;7.20;94.10;;;;;;7407413;19;19922;-73
2023/03/05 06:08:06;;;;;;;23.98;12.32;;;7.30;94.60;;;;;;7407858;19;20549;-74
2023/03/05 06:10:32;;;;;;;28.98;13.57;;;7.20;94.80;;;;;;7406439;19;20362;-74
2023/03/05 06:12:58;;;;;;;26.58;13.23;;;7.20;95.10;;;;;;7407781;19;19923;-74
2023/03/05 06:15:24;;;;;;;25.63;12.35;;;7.10;95.10;;;;;;7409530;19;19928;-73
2023/03/05 06:17:50;;;;;;;25.45;13.13;;;7.20;95.20;;;;;;7407854;19;19927;-76
2023/03/05 06:20:15;;;;;;;24.73;12.57;;;7.20;95.40;;;;;;7404376;19;19918;-74
2023/03/05 06:22:41;;;;;;;25.63;12.95;;;7.10;95.20;;;;;;7408262;19;19919;-74
2023/03/05 06:25:08;;;;;;;26.35;13.00;;;7.00;95.30;;;;;;7407734;19;19906;-74
2023/03/05 06:27:35;;;;;;;24.92;12.90;;;6.90;95.50;;;;;;7407575;19;19978;-74
2023/03/05 06:30:01;;;;;;;;;;;6.90;95.70;;;;;;7385889;19;19918;-74
2023/03/05 06:32:27;;;;;;;27.17;12.88;;;6.90;95.80;;;;;;7407180;19;19918;-74
2023/03/05 06:34:52;;;;;;;28.13;13.95;;;6.90;95.70;;;;;;7407283;19;19907;-74
2023/03/05 06:37:18;;;;;;;26.17;12.70;;;7.00;95.90;;;;;;7404474;19;20262;-74
2023/03/05 06:39:44;;;;;;;25.55;12.38;;;7.10;95.70;;;;;;7405855;19;19930;-74
2023/03/05 06:42:10;;;;;;;24.90;12.55;;;7.10;95.70;;;;;;7403166;19;19950;-73
2023/03/05 06:44:40;;;;;;;26.13;12.00;;;7.10;95.00;;;;;;7407707;19;20262;-73
2023/03/05 06:47:09;;;;;;;24.30;12.35;;;7.30;93.90;;;;;;7372168;19;19928;-74
2023/03/05 06:49:35;;;;;;;24.67;11.88;;;7.20;93.40;;;;;;7405391;19;19910;-74
2023/03/05 06:52:02;;;;;;;24.35;12.68;;;7.30;93.30;;;;;;7405504;19;19917;-74
2023/03/05 06:54:27;;;;;;;23.52;12.30;;;7.40;92.40;;;;;;7405011;19;20007;-74
2023/03/05 06:56:53;;;;;;;26.45;11.90;;;7.30;92.20;;;;;;7405023;19;20308;-74
2023/03/05 06:59:20;;;;;;;26.75;13.95;;;7.50;92.30;;;;;;7403969;19;19925;-74
2023/03/05 07:01:46;;;;;;;24.75;11.55;;;7.50;92.80;;;;;;7408394;19;19910;-73
2023/03/05 07:04:14;;;;;;;25.30;12.65;;;7.60;92.70;;;;;;7402522;19;19923;-74
2023/03/05 07:06:41;;;;;;;26.90;13.43;;;7.60;92.70;;;;;;7406992;19;19915;-74
2023/03/05 07:09:10;;;;;;;25.77;13.07;;;7.60;92.90;;;;;;7373867;19;19923;-74
2023/03/05 07:11:37;;;;;;;26.50;12.43;;;7.80;92.90;;;;;;7404643;19;19914;-73
2023/03/05 07:14:03;;;;;;;28.08;12.60;;;7.70;92.70;;;;;;7401955;19;19934;-73
2023/03/05 07:16:31;;;;;;;26.70;12.73;;;7.80;92.70;;;;;;7405256;19;19973;-74
2023/03/05 07:18:58;;;;;;;27.50;14.05;;;7.80;92.70;;;;;;7407157;19;19951;-74
2023/03/05 07:21:27;;;;;;;26.80;12.90;;;7.90;92.90;;;;;;7404179;19;19931;-75
2023/03/05 07:23:57;;;;;;;28.45;14.07;;;7.90;92.90;;;;;;7405558;19;19922;-74
2023/03/05 07:26:23;;;;;;;25.50;12.43;;;8.10;92.70;;;;;;7404627;19;19943;-74
2023/03/05 07:28:49;;;;;;;28.63;14.35;;;8.30;92.50;;;;;;7405216;19;19927;-75
2023/03/05 07:31:21;;;;;;;27.40;13.77;;;8.30;92.60;;;;;;7403018;19;19910;-74
2023/03/05 07:33:48;;;;;;;29.92;14.38;;;8.40;92.40;;;;;;7403703;19;20002;-74
2023/03/05 07:36:15;;;;;;;25.92;13.35;;;8.40;92.30;;;;;;7405155;19;20260;-75
2023/03/05 07:38:41;;;;;;;31.42;14.52;;;8.40;92.40;;;;;;7372480;19;19922;-75
2023/03/05 07:41:09;;;;;;;31.48;16.45;;;8.50;92.40;;;;;;7405894;19;20343;-74
2023/03/05 07:43:35;;;;;;;27.88;14.55;;;8.50;92.40;;;;;;7402998;19;19956;-75
2023/03/05 07:46:08;;;;;;;26.90;14.40;;;8.60;92.20;;;;;;7404577;19;19922;-74
2023/03/05 07:48:34;;;;;;;30.52;14.23;;;8.70;92.00;;;;;;7401951;19;19989;-74
2023/03/05 07:51:02;;;;;;;26.08;13.98;;;8.80;91.60;;;;;;7405812;19;20279;-73
2023/03/05 07:53:28;;;;;;;26.75;13.38;;;8.90;91.10;;;;;;7405827;19;20343;-74
2023/03/05 07:55:54;;;;;;;24.05;12.82;;;9.00;90.00;;;;;;7407700;19;20011;-74
2023/03/05 07:58:20;;;;;;;25.25;11.23;;;9.20;86.70;;;;;;7372652;19;19935;-75
2023/03/05 08:00:46;;;;;;;24.73;12.88;;;9.40;83.60;;;;;;7407487;19;19945;-75
2023/03/05 08:03:12;;;;;;;23.08;11.52;;;9.60;83.40;;;;;;7406696;19;19922;-74
2023/03/05 08:05:39;;;;;;;26.05;13.30;;;9.80;81.90;;;;;;7404694;19;19918;-74
2023/03/05 08:08:05;;;;;;;23.83;12.75;;;9.80;83.40;;;;;;7404827;19;19919;-76
2023/03/05 08:10:33;;;;;;;23.83;11.68;;;9.90;83.90;;;;;;7403407;19;19947;-76
2023/03/05 08:12:58;;;;;;;25.52;11.35;;;9.90;81.40;;;;;;7406148;19;19932;-73
2023/03/05 08:15:24;;;;;;;17.50;8.32;;;10.10;77.50;;;;;;7403691;19;19918;-74
2023/03/05 08:17:50;;;;;;;23.63;10.63;;;10.50;71.70;;;;;;7407129;19;20224;-74
2023/03/05 08:20:18;;;;;;;17.67;7.45;;;10.60;72.70;;;;;;7402102;19;19978;-73
2023/03/05 08:22:44;;;;;;;18.63;8.57;;;10.80;70.00;;;;;;7401673;19;19918;-74
2023/03/05 08:25:11;;;;;;;18.17;8.20;;;11.00;68.80;;;;;;7403411;19;19926;-73
2023/03/05 08:27:44;;;;;;;18.25;7.93;;;11.10;68.00;;;;;;7402584;19;21356;-73
2023/03/05 08:30:15;;;;;;;16.08;7.25;;;11.20;68.70;;;;;;7402362;19;19923;-75
2023/03/05 08:32:41;;;;;;;19.30;8.50;;;11.20;67.90;;;;;;7404003;19;19918;-74
2023/03/05 08:35:08;;;;;;;19.30;8.30;;;11.10;68.60;;;;;;7400936;19;19914;-75
2023/03/05 08:37:34;;;;;;;17.27;8.57;;;11.30;67.90;;;;;;7402239;19;19918;-73
2023/03/05 08:40:01;;;;;;;17.70;8.07;;;12.20;66.80;;;;;;7404047;19;20387;-74
2023/03/05 08:42:27;;;;;;;23.23;8.70;;;14.00;63.50;;;;;;7398429;19;19915;-73
2023/03/05 08:44:53;;;;;;;18.80;9.02;;;14.80;61.80;;;;;;7404370;19;20343;-76
2023/03/05 08:47:19;;;;;;;14.05;7.85;;;15.40;60.90;;;;;;7403896;19;19944;-74
2023/03/05 08:49:46;;;;;;;22.75;9.85;;;14.80;60.30;;;;;;7406419;19;19939;-75
2023/03/05 08:52:13;;;;;;;19.50;10.50;;;15.00;60.70;;;;;;7401285;19;19942;-76
2023/03/05 08:54:39;;;;;;;21.70;11.20;;;15.30;60.30;;;;;;7403181;19;19914;-75
2023/03/05 08:57:05;;;;;;;22.33;10.27;;;14.90;60.70;;;;;;7401825;19;19919;-74
2023/03/05 08:59:31;;;;;;;14.80;8.70;;;15.10;60.60;;;;;;7404881;19;19915;-74
2023/03/05 09:02:00;;;;;;;20.67;9.77;;;15.60;59.30;;;;;;7401133;19;20010;-74
2023/03/05 09:04:26;;;;;;;20.17;10.93;;;15.10;59.90;;;;;;7402444;19;20007;-75
2023/03/05 09:06:52;;;;;;;16.35;8.30;;;14.80;59.10;;;;;;7404796;19;19922;-75
2023/03/05 09:09:20;;;;;;;19.98;12.13;;;15.20;59.30;;;;;;7402327;19;19918;-76
2023/03/05 09:11:46;;;;;;;19.88;10.55;;;16.10;58.70;;;;;;7404526;19;19910;-76
2023/03/05 09:14:12;;;;;;;22.08;11.45;;;16.10;57.30;;;;;;7402326;19;19918;-75
2023/03/05 09:16:39;;;;;;;16.30;8.93;;;17.00;57.40;;;;;;7402350;19;19929;-74
2023/03/05 09:19:09;;;;;;;16.85;10.25;;;16.50;56.60;;;;;;7399141;19;19914;-74
2023/03/05 09:21:35;;;;;;;19.60;11.45;;;16.60;56.50;;;;;;7403014;19;19919;-76
2023/03/05 09:24:01;;;;;;;18.55;11.45;;;16.50;56.60;;;;;;7402292;19;19924;-76
2023/03/05 09:26:26;;;;;;;19.13;11.00;;;16.40;58.40;;;;;;7379196;19;19918;-75
2023/03/05 09:28:52;;;;;;;20.92;11.38;;;16.50;57.70;;;;;;7403184;19;19922;-75
2023/03/05 09:31:20;;;;;;;18.15;11.02;;;16.80;56.80;;;;;;7358745;19;20284;-76
2023/03/05 09:33:47;;;;;;;25.10;11.18;;;16.50;57.50;;;;;;7401838;19;19938;-75
2023/03/05 09:36:18;;;;;;;19.02;11.02;;;17.00;57.40;;;;;;7401326;19;20457;-75
2023/03/05 09:38:43;;;;;;;17.92;10.48;;;16.70;56.60;;;;;;7398606;19;19938;-74
2023/03/05 09:41:21;;;;;;;18.52;10.95;;;16.40;57.20;;;;;;7394469;19;19910;-74
2023/03/05 09:44:11;;;;;;;18.92;11.23;;;17.00;56.90;;;;;;7396921;19;20247;-74
2023/03/05 09:47:22;;;;;;;17.70;10.05;;;17.60;55.50;;;;;;7401977;19;19935;-74
2023/03/05 09:50:33;;;;;;;17.58;9.70;;;16.00;56.10;;;;;;7400495;19;19919;-73
2023/03/05 09:53:21;;;;;;;13.32;7.35;;;15.80;56.40;;;;;;7402064;19;19915;-74
2023/03/05 09:55:52;;;;;;;17.35;10.32;;;15.10;57.30;;;;;;7399284;19;19919;-75
2023/03/05 09:58:39;;;;;;;15.00;8.13;;;15.00;58.00;;;;;;7398656;19;19982;-74
2023/03/05 10:01:19;;;;;;;17.45;9.60;;;14.70;58.80;;;;;;7399879;19;19986;-74
2023/03/05 10:03:51;;;;;;;16.58;10.25;;;14.50;59.20;;;;;;7402750;19;19923;-74
2023/03/05 10:06:29;;;;;;;21.20;10.27;;;14.50;59.80;;;;;;7403792;19;19919;-73
2023/03/05 10:08:58;;;;;;;16.65;9.50;;;14.70;59.60;;;;;;7411481;19;19919;-74
2023/03/05 10:12:03;;;;;;;17.95;8.88;;;14.80;59.50;;;;;;7406451;19;19923;-74
2023/03/05 10:14:38;;;;;;;18.42;10.13;;;15.00;59.20;;;;;;7410216;19;20354;-75
2023/03/05 10:17:23;;;;;;;19.15;9.38;;;15.20;59.10;;;;;;7409465;19;19907;-76
2023/03/05 10:20:20;;;;;;;17.30;9.20;;;15.30;59.20;;;;;;7406036;19;19914;-75
2023/03/05 10:22:54;;;;;;;14.95;7.80;;;15.80;58.70;;;;;;7407952;19;19978;-75
2023/03/05 10:26:02;;;;;;;16.75;9.50;;;15.70;57.80;;;;;;7405555;19;19919;-74
2023/03/05 10:28:43;;;;;;;19.70;10.32;;;15.90;58.50;;;;;;7403974;19;19919;-75
2023/03/05 10:31:24;;;;;;;16.13;9.50;;;16.30;58.20;;;;;;7406704;19;20011;-74
2023/03/05 10:34:11;;;;;;;17.55;9.35;;;16.40;57.70;;;;;;7409021;19;19914;-75
2023/03/05 10:36:45;;;;;;;19.58;10.57;;;16.60;57.50;;;;;;7407495;19;20626;-76
2023/03/05 10:39:35;;;;;;;15.13;9.05;;;16.90;56.80;;;;;;7408948;19;19922;-76
2023/03/05 10:42:10;;;;;;;15.55;9.35;;;16.90;57.10;;;;;;7408435;19;19923;-75
2023/03/05 10:44:46;;;;;;;13.68;8.07;;;16.80;56.30;;;;;;7407161;19;20454;-75
2023/03/05 10:47:38;;;;;;;17.85;10.30;;;17.10;56.20;;;;;;7352310;19;20015;-75
2023/03/05 10:50:18;;;;;;;16.58;8.38;;;17.50;55.60;;;;;;7404530;19;19918;-75
2023/03/05 10:52:50;;;;;;;17.40;8.77;;;17.90;55.40;;;;;;7405984;19;19925;-75
2023/03/05 10:55:21;;;;;;;15.95;9.38;;;18.40;54.50;;;;;;7403835;19;19938;-75
2023/03/05 10:57:47;;;;;;;15.63;9.02;;;17.80;54.90;;;;;;7407313;19;19919;-75
2023/03/05 11:00:25;;;;;;;18.10;9.90;;;18.30;55.60;;;;;;7381356;19;19918;-75
2023/03/05 11:03:02;;;;;;;19.10;10.98;;;18.50;54.90;;;;;;7406616;19;19933;-75
2023/03/05 11:05:44;;;;;;;18.58;10.82;;;18.10;55.80;;;;;;7403794;19;19938;-73
2023/03/05 11:08:32;;;;;;;23.02;11.18;;;18.00;56.50;;;;;;7402580;19;20247;-75
2023/03/05 11:11:10;;;;;;;19.65;11.65;;;17.50;58.00;;;;;;7406782;19;19923;-75
2023/03/05 11:13:51;;;;;;;22.67;12.00;;;17.00;58.70;;;;;;7403149;19;19936;-75
2023/03/05 11:16:44;;;;;;;23.17;13.55;;;17.50;58.30;;;;;;7403850;19;19946;-77
2023/03/05 11:19:13;;;;;;;20.98;13.82;;;16.90;58.60;;;;;;7405890;19;19999;-75
2023/03/05 11:21:39;;;;;;;25.35;13.30;;;17.30;59.30;;;;;;7408451;19;19915;-75
2023/03/05 11:24:17;;;;;;;23.85;14.30;;;17.20;59.40;;;;;;7406779;19;20242;-73
2023/03/05 11:26:47;;;;;;;25.25;14.35;;;17.10;60.10;;;;;;7406176;19;19923;-74
2023/03/05 11:29:28;;;;;;;27.35;15.50;;;16.70;61.40;;;;;;7403770;19;19940;-74
2023/03/05 11:31:54;;;;;;;24.67;14.98;;;16.50;63.20;;;;;;7405502;19;20372;-75
2023/03/05 11:34:22;;;;;;;23.95;13.95;;;16.50;63.50;;;;;;7406322;19;19915;-76
2023/03/05 11:36:54;;;;;;;22.50;14.50;;;16.60;64.80;;;;;;7399124;19;21788;-75
2023/03/05 11:39:22;;;;;;;41.75;15.23;;;17.40;64.00;;;;;;7397397;19;19911;-74
2023/03/05 11:41:59;;;;;;;21.95;14.10;;;17.60;63.80;;;;;;7404256;19;19922;-75
2023/03/05 11:44:32;;;;;;;21.73;14.73;;;17.40;64.20;;;;;;7406128;19;19918;-74
2023/03/05 11:47:00;;;;;;;;;;;16.60;64.00;;;;;;7406698;19;20258;-75
2023/03/05 11:49:28;;;;;;;26.70;14.85;;;17.20;65.10;;;;;;7370977;19;19926;-75
2023/03/05 11:52:11;;;;;;;22.73;14.18;;;17.20;65.60;;;;;;7405814;19;19949;-74
2023/03/05 11:55:20;;;;;;;23.50;14.50;;;17.40;66.30;;;;;;7404630;19;19935;-75
2023/03/05 11:58:12;;;;;;;20.92;14.45;;;17.20;67.00;;;;;;7399490;19;19950;-74
2023/03/05 12:00:43;;;;;;;20.80;12.13;;;17.90;65.10;;;;;;7399976;19;19922;-76
2023/03/05 12:03:16;;;;;;;21.88;13.63;;;17.90;63.50;;;;;;7402050;19;19933;-75
2023/03/05 12:05:56;;;;;;;22.80;13.70;;;17.90;61.50;;;;;;7402311;19;19918;-75
2023/03/05 12:08:31;;;;;;;22.75;13.63;;;17.50;60.30;;;;;;7403434;19;19956;-75
2023/03/05 12:11:00;;;;;;;22.65;13.20;;;16.90;62.00;;;;;;7406398;19;20363;-77
2023/03/05 12:13:44;;;;;;;25.35;14.55;;;17.00;62.50;;;;;;7401988;19;19923;-74
2023/03/05 12:16:16;;;;;;;21.38;12.45;;;17.50;62.90;;;;;;7407241;19;19946;-76
2023/03/05 12:18:44;;;;;;;21.67;14.23;;;17.10;62.60;;;;;;7403730;19;20276;-75
2023/03/05 12:21:28;;;;;;;23.08;13.88;;;17.30;63.00;;;;;;7403770;19;19926;-75
2023/03/05 12:23:57;;;;;;;23.27;13.73;;;17.00;63.20;;;;;;7405051;19;20407;-75
2023/03/05 12:26:51;;;;;;;23.17;13.68;;;17.30;64.00;;;;;;7404781;19;19931;-75
2023/03/05 12:29:41;;;;;;;20.40;13.32;;;16.70;65.30;;;;;;7402550;19;20342;-75
2023/03/05 12:32:27;;;;;;;21.35;14.65;;;16.70;66.10;;;;;;7402166;19;19913;-75
2023/03/05 12:35:43;;;;;;;22.85;13.93;;;17.20;66.10;;;;;;7406381;19;19943;-76
2023/03/05 12:38:31;;;;;;;22.15;14.75;;;17.60;65.60;;;;;;7403143;19;19907;-75
2023/03/05 12:41:21;;;;;;;21.95;13.57;;;18.10;64.50;;;;;;7405011;19;19919;-78
2023/03/05 12:44:06;;;;;;;23.65;13.23;;;18.60;63.20;;;;;;7404245;19;19922;-76
2023/03/05 12:46:34;;;;;;;22.17;13.70;;;18.10;63.70;;;;;;7403479;19;19921;-75
2023/03/05 12:49:21;;;;;;;23.05;14.57;;;17.20;63.80;;;;;;7405571;19;19943;-75